createdAt,value
2017-11-06T00:00:22.180Z,13.80
2017-11-06T00:02:49.606Z,15.80
2017-11-06T00:05:17.051Z,15.60
2017-11-06T00:07:44.471Z,16.33
2017-11-06T00:10:12.670Z,13.20
2017-11-06T00:12:40.230Z,13.30
2017-11-06T00:15:07.648Z,15.63
2017-11-06T00:17:35.861Z,17.80
2017-11-06T00:20:03.280Z,16.57
2017-11-06T00:22:31.779Z,12.47
2017-11-06T00:24:59.180Z,22.23
2017-11-06T00:27:26.610Z,16.00
2017-11-06T00:29:55.690Z,13.23
2017-11-06T00:32:23.116Z,15.23
2017-11-06T00:34:51.326Z,16.53
2017-11-06T00:37:19.503Z,17.10
2017-11-06T00:39:46.931Z,18.97
2017-11-06T00:42:15.259Z,24.33
2017-11-06T00:44:42.682Z,21.37
2017-11-06T00:47:10.092Z,16.23
2017-11-06T00:49:38.328Z,22.87
2017-11-06T00:52:05.758Z,19.80
2017-11-06T00:54:33.316Z,18.20
2017-11-06T00:57:01.508Z,19.23
2017-11-06T00:59:28.910Z,25.17
2017-11-06T01:01:56.339Z,17.70
2017-11-06T01:04:23.754Z,19.67
2017-11-06T01:06:51.952Z,17.07
2017-11-06T01:09:19.380Z,19.87
2017-11-06T01:11:48.210Z,19.70
2017-11-06T01:14:15.623Z,19.03
2017-11-06T01:16:43.815Z,19.13
2017-11-06T01:19:11.237Z,16.70
2017-11-06T01:21:39.428Z,16.07
2017-11-06T01:24:07.598Z,20.52
2017-11-06T01:26:35.834Z,25.90
2017-11-06T01:29:03.242Z,17.33
2017-11-06T01:31:31.403Z,21.13
2017-11-06T01:33:59.596Z,19.05
2017-11-06T01:36:26.998Z,16.70
2017-11-06T01:38:54.425Z,21.27
2017-11-06T01:41:22.727Z,21.53
2017-11-06T01:43:50.142Z,15.93
2017-11-06T01:46:17.560Z,17.37
2017-11-06T01:48:44.970Z,17.60
2017-11-06T01:51:12.375Z,14.37
2017-11-06T01:53:40.551Z,18.23
2017-11-06T01:56:08.729Z,18.30
2017-11-06T01:58:36.917Z,22.47
2017-11-06T02:01:04.327Z,26.47
2017-11-06T02:03:31.755Z,18.00
2017-11-06T02:05:59.160Z,14.40
2017-11-06T02:08:27.339Z,15.67
2017-11-06T02:10:56.431Z,21.23
2017-11-06T02:13:24.602Z,20.60
2017-11-06T02:15:52.780Z,15.37
2017-11-06T02:18:20.950Z,17.33
2017-11-06T02:20:49.147Z,22.63
2017-11-06T02:23:17.339Z,18.80
2017-11-06T02:25:44.754Z,19.10
2017-11-06T02:28:12.204Z,23.17
2017-11-06T02:30:39.607Z,26.03
2017-11-06T02:33:07.027Z,18.87
2017-11-06T02:35:35.226Z,21.50
2017-11-06T02:38:02.631Z,20.50
2017-11-06T02:40:30.055Z,15.80
2017-11-06T02:42:57.473Z,23.70
2017-11-06T02:45:25.651Z,22.57
2017-11-06T02:47:53.827Z,18.83
2017-11-06T02:50:21.246Z,27.47
2017-11-06T02:52:48.660Z,19.83
2017-11-06T02:55:16.077Z,16.87
2017-11-06T02:57:44.270Z,23.75
2017-11-06T03:00:12.456Z,18.47
2017-11-06T03:02:39.869Z,23.03
2017-11-06T03:05:07.288Z,19.77
2017-11-06T03:07:34.703Z,21.97
2017-11-06T03:10:02.888Z,23.30
2017-11-06T03:12:30.320Z,24.40
2017-11-06T03:14:58.614Z,23.08
2017-11-06T03:17:27.725Z,26.37
2017-11-06T03:19:55.159Z,22.90
2017-11-06T03:22:23.342Z,20.53
2017-11-06T03:24:50.769Z,19.30
2017-11-06T03:27:18.181Z,20.53
2017-11-06T03:29:45.591Z,20.83
2017-11-06T03:32:13.779Z,22.47
2017-11-06T03:34:41.218Z,18.00
2017-11-06T03:37:09.403Z,23.60
2017-11-06T03:39:37.587Z,22.57
2017-11-06T03:42:05.001Z,26.67
2017-11-06T03:44:32.428Z,26.80
2017-11-06T03:46:59.838Z,21.60
2017-11-06T03:49:28.934Z,25.17
2017-11-06T03:51:57.124Z,20.40
2017-11-06T03:54:25.293Z,17.53
2017-11-06T03:56:52.719Z,20.23
2017-11-06T03:59:20.142Z,18.37
2017-11-06T04:01:47.543Z,23.23
2017-11-06T04:04:15.723Z,21.70
2017-11-06T04:06:43.913Z,16.00
2017-11-06T04:09:11.365Z,22.90
2017-11-06T04:11:39.526Z,19.97
2017-11-06T04:14:06.956Z,20.75
2017-11-06T04:16:35.150Z,20.47
2017-11-06T04:19:03.331Z,19.07
2017-11-06T04:21:31.539Z,18.33
2017-11-06T04:23:59.218Z,17.62
2017-11-06T04:26:26.631Z,16.47
2017-11-06T04:28:54.059Z,19.00
2017-11-06T04:31:21.456Z,18.97
2017-11-06T04:33:51.300Z,18.93
2017-11-06T04:36:18.718Z,19.70
2017-11-06T04:38:46.147Z,20.73
2017-11-06T04:41:14.365Z,21.70
2017-11-06T04:43:41.796Z,22.93
2017-11-06T04:46:09.227Z,16.00
2017-11-06T04:48:36.657Z,17.47
2017-11-06T04:51:04.068Z,19.53
2017-11-06T04:53:31.827Z,19.10
2017-11-06T04:55:59.716Z,25.23
2017-11-06T04:58:27.133Z,19.20
2017-11-06T05:00:55.323Z,17.70
2017-11-06T05:03:22.754Z,25.97
2017-11-06T05:05:50.162Z,17.20
2017-11-06T05:08:17.580Z,19.43
2017-11-06T05:10:46.108Z,19.90
2017-11-06T05:13:13.516Z,17.83
2017-11-06T05:15:41.708Z,20.90
2017-11-06T05:18:09.167Z,16.67
2017-11-06T05:20:36.592Z,23.03
2017-11-06T05:23:04.006Z,17.83
2017-11-06T05:25:31.429Z,23.43
2017-11-06T05:27:58.881Z,26.00
2017-11-06T05:30:27.059Z,23.80
2017-11-06T05:32:54.486Z,23.45
2017-11-06T05:35:21.899Z,22.57
2017-11-06T05:37:49.337Z,22.67
2017-11-06T05:40:16.763Z,22.40
2017-11-06T05:42:44.167Z,22.87
2017-11-06T05:45:11.599Z,29.33
2017-11-06T05:47:39.048Z,28.23
2017-11-06T05:50:06.471Z,27.57
2017-11-06T05:52:33.888Z,26.58
2017-11-06T05:55:01.307Z,26.90
2017-11-06T05:57:29.491Z,28.83
2017-11-06T05:59:56.993Z,28.98
2017-11-06T06:02:24.432Z,26.20
2017-11-06T06:04:51.856Z,29.60
2017-11-06T06:07:20.053Z,30.40
2017-11-06T06:09:47.468Z,36.47
2017-11-06T06:12:15.835Z,39.80
2017-11-06T06:14:43.260Z,32.00
2017-11-06T06:17:10.677Z,32.10
2017-11-06T06:19:38.104Z,30.37
2017-11-06T06:22:05.546Z,37.20
2017-11-06T06:24:32.993Z,35.13
2017-11-06T06:27:00.432Z,35.45
2017-11-06T06:29:27.857Z,33.72
2017-11-06T06:31:55.283Z,32.97
2017-11-06T06:34:22.719Z,34.03
2017-11-06T06:36:50.106Z,33.73
2017-11-06T06:39:18.286Z,33.93
2017-11-06T06:41:46.472Z,34.27
2017-11-06T06:44:13.891Z,39.85
2017-11-06T06:46:41.307Z,44.87
2017-11-06T06:49:08.721Z,31.30
2017-11-06T06:51:36.897Z,32.77
2017-11-06T06:54:05.107Z,34.10
2017-11-06T06:56:32.518Z,37.97
2017-11-06T06:58:59.944Z,32.20
2017-11-06T07:01:27.343Z,32.67
2017-11-06T07:03:54.768Z,34.23
2017-11-06T07:06:23.074Z,34.20
2017-11-06T07:08:51.260Z,33.27
2017-11-06T07:11:18.667Z,35.40
2017-11-06T07:13:46.074Z,32.60
2017-11-06T07:16:13.610Z,42.27
2017-11-06T07:18:41.782Z,32.43
2017-11-06T07:21:09.983Z,33.57
2017-11-06T07:23:37.400Z,33.73
2017-11-06T07:26:04.845Z,30.90
2017-11-06T07:28:33.463Z,41.15
2017-11-06T07:31:02.019Z,32.03
2017-11-06T07:33:29.458Z,31.80
2017-11-06T07:35:56.871Z,30.80
2017-11-06T07:38:24.328Z,31.57
2017-11-06T07:40:51.753Z,33.87
2017-11-06T07:43:19.937Z,32.10
2017-11-06T07:45:48.124Z,32.07
2017-11-06T07:48:15.538Z,35.50
2017-11-06T07:50:43.785Z,32.30
2017-11-06T07:53:11.202Z,37.58
2017-11-06T07:55:39.741Z,32.70
2017-11-06T07:58:07.148Z,33.15
2017-11-06T08:00:34.554Z,33.47
2017-11-06T08:03:01.984Z,31.27
2017-11-06T08:05:29.407Z,29.03
2017-11-06T08:07:57.592Z,35.87
2017-11-06T08:10:25.012Z,32.30
2017-11-06T08:12:52.459Z,34.20
2017-11-06T08:15:19.859Z,35.00
2017-11-06T08:17:47.323Z,33.77
2017-11-06T08:20:14.747Z,39.92
2017-11-06T08:22:42.923Z,33.57
2017-11-06T08:25:11.123Z,31.37
2017-11-06T08:27:38.530Z,32.30
2017-11-06T08:30:05.968Z,33.53
2017-11-06T08:32:34.805Z,43.58
2017-11-06T08:35:03.921Z,36.73
2017-11-06T08:37:31.359Z,32.03
2017-11-06T08:39:58.774Z,32.20
2017-11-06T08:42:26.195Z,37.90
2017-11-06T08:44:53.612Z,32.70
2017-11-06T08:47:21.798Z,32.10
2017-11-06T08:49:50.021Z,36.60
2017-11-06T08:52:17.427Z,37.43
2017-11-06T08:54:45.625Z,35.77
2017-11-06T08:57:13.035Z,39.83
2017-11-06T08:59:40.463Z,33.03
2017-11-06T09:02:07.865Z,38.17
2017-11-06T09:04:36.053Z,32.30
2017-11-06T09:07:03.466Z,33.93
2017-11-06T09:09:30.900Z,36.53
2017-11-06T09:11:58.355Z,35.70
2017-11-06T09:14:25.809Z,39.57
2017-11-06T09:16:53.207Z,27.03
2017-11-06T09:19:21.394Z,25.07
2017-11-06T09:21:49.600Z,26.03
2017-11-06T09:24:17.034Z,36.43
2017-11-06T09:26:44.446Z,30.70
2017-11-06T09:29:11.868Z,30.33
2017-11-06T09:31:39.296Z,31.85
2017-11-06T09:34:07.499Z,33.17
2017-11-06T09:36:35.951Z,29.83
2017-11-06T09:39:04.222Z,31.37
2017-11-06T09:41:32.411Z,33.17
2017-11-06T09:43:59.848Z,30.33
2017-11-06T09:46:28.051Z,28.00
2017-11-06T09:48:55.471Z,30.60
2017-11-06T09:51:23.698Z,31.20
2017-11-06T09:53:51.153Z,30.83
2017-11-06T09:56:18.589Z,30.42
2017-11-06T09:58:46.012Z,36.60
2017-11-06T10:01:13.441Z,33.73
2017-11-06T10:03:40.877Z,35.40
2017-11-06T10:06:08.306Z,35.67
2017-11-06T10:08:36.687Z,43.28
2017-11-06T10:11:04.098Z,37.77
2017-11-06T10:13:31.546Z,38.87
2017-11-06T10:15:58.961Z,36.33
2017-11-06T10:18:26.414Z,38.03
2017-11-06T10:20:53.835Z,35.83
2017-11-06T10:23:22.043Z,37.60
2017-11-06T10:25:49.474Z,32.67
2017-11-06T10:28:17.651Z,38.90
2017-11-06T10:30:45.839Z,33.67
2017-11-06T10:33:13.282Z,33.17
2017-11-06T10:35:40.703Z,29.80
2017-11-06T10:38:08.144Z,31.77
2017-11-06T10:40:36.480Z,41.10
2017-11-06T10:43:03.911Z,33.03
2017-11-06T10:45:32.101Z,33.60
2017-11-06T10:47:59.516Z,30.80
2017-11-06T10:50:27.697Z,35.70
2017-11-06T10:52:55.108Z,33.90
2017-11-06T10:55:22.539Z,32.58
2017-11-06T10:57:50.736Z,34.80
2017-11-06T11:00:18.152Z,33.50
2017-11-06T11:02:45.584Z,35.73
2017-11-06T11:05:13.013Z,35.33
2017-11-06T11:07:40.441Z,36.90
2017-11-06T11:10:08.619Z,31.60
2017-11-06T11:12:36.968Z,37.43
2017-11-06T11:15:04.403Z,32.33
2017-11-06T11:17:31.826Z,39.77
2017-11-06T11:19:59.250Z,32.50
2017-11-06T11:22:26.805Z,30.87
2017-11-06T11:24:54.249Z,35.20
2017-11-06T11:27:21.693Z,33.23
2017-11-06T11:29:49.123Z,39.03
2017-11-06T11:32:16.568Z,36.70
2017-11-06T11:34:44.007Z,35.00
2017-11-06T11:37:11.459Z,34.40
2017-11-06T11:39:38.889Z,36.97
2017-11-06T11:42:06.330Z,47.13
2017-11-06T11:44:33.765Z,33.73
2017-11-06T11:47:01.184Z,35.53
2017-11-06T11:49:28.620Z,35.93
2017-11-06T11:51:56.058Z,35.63
2017-11-06T11:54:23.478Z,34.87
2017-11-06T11:56:50.896Z,33.60
2017-11-06T11:59:18.342Z,36.77
2017-11-06T12:01:45.757Z,34.17
2017-11-06T12:04:13.176Z,40.20
2017-11-06T12:06:41.373Z,37.87
2017-11-06T12:09:08.807Z,46.30
2017-11-06T12:11:36.247Z,34.53
2017-11-06T12:14:03.671Z,34.67
2017-11-06T12:16:31.106Z,37.17
2017-11-06T12:18:58.517Z,40.33
2017-11-06T12:21:26.694Z,44.87
2017-11-06T12:23:54.906Z,40.27
2017-11-06T12:26:22.340Z,38.23
2017-11-06T12:28:49.822Z,44.27
2017-11-06T12:31:17.277Z,39.13
2017-11-06T12:33:44.691Z,39.70
2017-11-06T12:36:12.888Z,34.07
2017-11-06T12:38:40.303Z,37.40
2017-11-06T12:41:07.753Z,32.43
2017-11-06T12:43:35.186Z,35.10
2017-11-06T12:46:02.608Z,32.13
2017-11-06T12:48:30.079Z,32.63
2017-11-06T12:50:57.487Z,30.63
2017-11-06T12:53:24.921Z,27.17
2017-11-06T12:55:52.373Z,26.10
2017-11-06T12:58:19.795Z,29.27
2017-11-06T13:00:47.218Z,28.20
2017-11-06T13:03:15.421Z,34.93
2017-11-06T13:05:42.871Z,31.03
2017-11-06T13:08:11.055Z,29.57
2017-11-06T13:10:39.834Z,26.77
2017-11-06T13:13:07.233Z,28.73
2017-11-06T13:15:34.676Z,26.80
2017-11-06T13:18:02.878Z,20.87
2017-11-06T13:20:30.309Z,26.70
2017-11-06T13:22:57.736Z,26.67
2017-11-06T13:25:25.157Z,24.43
2017-11-06T13:27:52.583Z,25.60
2017-11-06T13:30:20.020Z,22.90
2017-11-06T13:32:47.458Z,21.73
2017-11-06T13:35:14.889Z,23.00
2017-11-06T13:37:43.092Z,24.23
2017-11-06T13:40:10.529Z,25.67
2017-11-06T13:42:38.759Z,23.67
2017-11-06T13:45:06.208Z,22.90
2017-11-06T13:47:33.668Z,25.77
2017-11-06T13:50:01.126Z,27.13
2017-11-06T13:52:28.565Z,27.80
2017-11-06T13:54:56.021Z,29.23
2017-11-06T13:57:23.441Z,29.27
2017-11-06T13:59:50.867Z,29.50
2017-11-06T14:02:18.281Z,28.87
2017-11-06T14:04:45.707Z,26.77
2017-11-06T14:07:14.719Z,29.90
2017-11-06T14:09:42.897Z,28.60
2017-11-06T14:12:11.577Z,25.08
2017-11-06T14:14:39.008Z,25.87
2017-11-06T14:17:07.191Z,28.07
2017-11-06T14:19:35.382Z,24.67
2017-11-06T14:22:02.815Z,30.33
2017-11-06T14:24:31.001Z,28.67
2017-11-06T14:26:58.438Z,28.67
2017-11-06T14:29:25.937Z,29.70
2017-11-06T14:31:53.335Z,36.30
2017-11-06T14:34:20.747Z,30.80
2017-11-06T14:36:48.183Z,28.10
2017-11-06T14:39:15.651Z,25.47
2017-11-06T14:41:43.826Z,27.50
2017-11-06T14:44:12.291Z,26.37
2017-11-06T14:46:39.714Z,24.98
2017-11-06T14:49:07.222Z,22.13
2017-11-06T14:51:34.721Z,25.17
2017-11-06T14:54:02.132Z,21.23
2017-11-06T14:56:29.551Z,28.03
2017-11-06T14:58:57.917Z,25.00
2017-11-06T15:01:25.432Z,24.43
2017-11-06T15:03:52.929Z,21.33
2017-11-06T15:06:20.395Z,24.97
2017-11-06T15:08:47.800Z,23.87
2017-11-06T15:11:15.237Z,24.08
2017-11-06T15:13:42.666Z,24.63
2017-11-06T15:16:10.127Z,28.03
2017-11-06T15:18:38.318Z,26.07
2017-11-06T15:21:05.755Z,25.80
2017-11-06T15:23:33.958Z,28.47
2017-11-06T15:26:01.386Z,33.73
2017-11-06T15:28:28.855Z,26.70
2017-11-06T15:30:57.080Z,29.87
2017-11-06T15:33:24.486Z,29.20
2017-11-06T15:35:52.711Z,30.60
2017-11-06T15:38:20.133Z,26.23
2017-11-06T15:40:48.439Z,27.40
2017-11-06T15:43:16.028Z,30.27
2017-11-06T15:45:43.427Z,27.33
2017-11-06T15:48:10.868Z,26.97
2017-11-06T15:50:38.299Z,30.00
2017-11-06T15:53:05.720Z,31.57
2017-11-06T15:55:33.126Z,32.90
2017-11-06T15:58:00.571Z,37.40
2017-11-06T16:00:27.997Z,36.87
2017-11-06T16:02:55.426Z,32.73
2017-11-06T16:05:22.872Z,34.83
2017-11-06T16:07:50.336Z,35.93
2017-11-06T16:10:17.746Z,44.60
2017-11-06T16:12:45.168Z,42.00
2017-11-06T16:15:13.596Z,37.55
2017-11-06T16:17:41.792Z,38.70
2017-11-06T16:20:09.207Z,45.57
2017-11-06T16:22:36.654Z,44.23
2017-11-06T16:25:04.078Z,39.00
2017-11-06T16:27:31.517Z,36.87
2017-11-06T16:29:58.963Z,36.70
2017-11-06T16:32:26.388Z,38.07
2017-11-06T16:34:53.837Z,37.33
2017-11-06T16:37:21.246Z,42.70
2017-11-06T16:39:48.679Z,37.30
2017-11-06T16:42:16.900Z,38.87
2017-11-06T16:44:44.334Z,40.70
2017-11-06T16:47:11.781Z,35.60
2017-11-06T16:49:39.212Z,56.10
2017-11-06T16:52:07.403Z,47.73
2017-11-06T16:54:34.828Z,47.97
2017-11-06T16:57:03.023Z,47.85
2017-11-06T16:59:31.227Z,46.08
2017-11-06T17:01:59.212Z,68.83
2017-11-06T17:04:26.659Z,56.67
2017-11-06T17:06:54.064Z,55.00
2017-11-06T17:09:22.261Z,44.17
2017-11-06T17:11:50.442Z,44.23
2017-11-06T17:14:17.950Z,52.00
2017-11-06T17:16:45.381Z,42.43
2017-11-06T17:19:12.834Z,48.70
2017-11-06T17:21:40.248Z,51.07
2017-11-06T17:24:08.422Z,46.57
2017-11-06T17:26:36.616Z,55.17
2017-11-06T17:29:04.406Z,50.60
2017-11-06T17:31:31.875Z,55.57
2017-11-06T17:33:59.292Z,55.07
2017-11-06T17:36:26.703Z,60.90
2017-11-06T17:38:54.155Z,59.60
2017-11-06T17:41:21.572Z,53.60
2017-11-06T17:43:49.050Z,47.57
2017-11-06T17:46:16.481Z,47.27
2017-11-06T17:48:43.933Z,51.37
2017-11-06T17:51:11.419Z,51.00
2017-11-06T17:53:38.834Z,48.90
2017-11-06T17:56:06.287Z,52.07
2017-11-06T17:58:33.699Z,49.50
2017-11-06T18:01:01.356Z,47.23
2017-11-06T18:03:28.781Z,51.20
2017-11-06T18:05:56.216Z,50.03
2017-11-06T18:08:23.709Z,53.53
2017-11-06T18:10:51.132Z,54.63
2017-11-06T18:13:18.546Z,64.53
2017-11-06T18:15:46.854Z,52.55
2017-11-06T18:18:15.960Z,55.80
2017-11-06T18:20:43.387Z,50.00
2017-11-06T18:23:10.815Z,55.80
2017-11-06T18:25:38.251Z,74.47
2017-11-06T18:28:05.724Z,100.57
2017-11-06T18:30:33.128Z,85.63
2017-11-06T18:33:01.310Z,62.13
2017-11-06T18:35:28.743Z,63.97
2017-11-06T18:37:56.176Z,61.43
2017-11-06T18:40:23.597Z,64.03
2017-11-06T18:42:51.012Z,59.37
2017-11-06T18:45:18.846Z,52.90
2017-11-06T18:47:47.499Z,50.53
2017-11-06T18:50:14.937Z,59.50
2017-11-06T18:52:43.111Z,57.50
2017-11-06T18:55:11.322Z,66.47
2017-11-06T18:57:38.733Z,62.23
2017-11-06T19:00:06.923Z,61.83
2017-11-06T19:02:34.357Z,63.77
2017-11-06T19:05:02.572Z,82.03
2017-11-06T19:07:30.016Z,69.23
2017-11-06T19:09:57.441Z,68.90
2017-11-06T19:12:25.636Z,75.37
2017-11-06T19:14:53.085Z,77.40
2017-11-06T19:17:21.272Z,74.97
2017-11-06T19:19:48.695Z,67.53
2017-11-06T19:22:16.140Z,65.67
2017-11-06T19:24:43.567Z,59.42
2017-11-06T19:27:10.997Z,66.57
2017-11-06T19:29:38.591Z,68.43
2017-11-06T19:32:06.012Z,62.80
2017-11-06T19:34:33.440Z,67.03
2017-11-06T19:37:01.667Z,62.57
2017-11-06T19:39:29.079Z,59.67
2017-11-06T19:41:57.259Z,68.57
2017-11-06T19:44:25.476Z,68.07
2017-11-06T19:46:52.909Z,66.00
2017-11-06T19:49:20.339Z,63.30
2017-11-06T19:51:48.723Z,63.17
2017-11-06T19:54:16.192Z,66.17
2017-11-06T19:56:43.614Z,60.93
2017-11-06T19:59:11.054Z,66.57
2017-11-06T20:01:38.495Z,67.93
2017-11-06T20:04:06.056Z,67.10
2017-11-06T20:06:33.488Z,63.80
2017-11-06T20:09:00.875Z,75.20
2017-11-06T20:11:28.325Z,71.87
2017-11-06T20:13:55.745Z,66.90
2017-11-06T20:16:23.169Z,67.60
2017-11-06T20:18:50.576Z,64.97
2017-11-06T20:21:18.366Z,61.47
2017-11-06T20:23:45.784Z,73.50
2017-11-06T20:26:13.209Z,68.07
2017-11-06T20:28:41.397Z,81.47
2017-11-06T20:31:08.812Z,69.83
2017-11-06T20:33:37.748Z,71.10
2017-11-06T20:36:05.169Z,81.87
2017-11-06T20:38:32.582Z,71.40
2017-11-06T20:41:00.031Z,69.07
2017-11-06T20:43:27.500Z,82.68
2017-11-06T20:45:54.947Z,69.57
2017-11-06T20:48:22.436Z,62.47
2017-11-06T20:50:49.839Z,76.40
2017-11-06T20:53:17.284Z,75.93
2017-11-06T20:55:45.518Z,84.73
2017-11-06T20:58:13.006Z,74.27
2017-11-06T21:00:40.435Z,72.30
2017-11-06T21:03:07.871Z,76.90
2017-11-06T21:05:35.354Z,73.30
2017-11-06T21:08:04.307Z,73.00
2017-11-06T21:10:31.763Z,69.20
2017-11-06T21:12:59.248Z,66.73
2017-11-06T21:15:26.709Z,65.18
2017-11-06T21:17:54.168Z,71.67
2017-11-06T21:20:21.561Z,70.63
2017-11-06T21:22:49.068Z,83.13
2017-11-06T21:25:16.564Z,68.10
2017-11-06T21:27:44.000Z,71.40
2017-11-06T21:30:17.005Z,71.83
2017-11-06T21:32:44.691Z,74.17
2017-11-06T21:35:12.915Z,72.90
2017-11-06T21:37:40.363Z,79.43
2017-11-06T21:40:07.780Z,77.57
2017-11-06T21:42:35.187Z,74.05
2017-11-06T21:45:02.607Z,76.30
2017-11-06T21:47:30.020Z,72.97
2017-11-06T21:49:58.204Z,74.73
2017-11-06T21:52:26.413Z,81.10
2017-11-06T21:54:53.820Z,75.17
2017-11-06T21:57:22.017Z,85.60
2017-11-06T21:59:49.431Z,76.53
2017-11-06T22:02:16.865Z,73.50
2017-11-06T22:04:44.279Z,83.87
2017-11-06T22:07:11.722Z,77.47
2017-11-06T22:09:39.915Z,79.93
2017-11-06T22:12:07.347Z,77.60
2017-11-06T22:14:35.522Z,76.53
2017-11-06T22:17:03.712Z,73.97
2017-11-06T22:19:31.135Z,83.17
2017-11-06T22:21:58.562Z,91.33
2017-11-06T22:24:25.992Z,81.50
2017-11-06T22:26:53.409Z,72.97
2017-11-06T22:29:26.042Z,69.43
2017-11-06T22:31:54.356Z,85.70
2017-11-06T22:34:21.760Z,91.60
2017-11-06T22:36:50.212Z,85.60
2017-11-06T22:39:19.334Z,87.50
2017-11-06T22:41:46.798Z,82.17
2017-11-06T22:44:14.238Z,84.97
2017-11-06T22:46:41.653Z,84.13
2017-11-06T22:49:09.068Z,81.60
2017-11-06T22:51:36.488Z,74.10
2017-11-06T22:54:04.714Z,82.57
2017-11-06T22:56:32.129Z,93.10
2017-11-06T22:59:00.331Z,78.10
2017-11-06T23:01:27.754Z,83.60
2017-11-06T23:03:55.945Z,78.90
2017-11-06T23:06:23.356Z,69.87
2017-11-06T23:08:50.786Z,71.32
2017-11-06T23:11:18.194Z,77.27
2017-11-06T23:13:46.386Z,79.57
2017-11-06T23:16:13.798Z,64.97
2017-11-06T23:18:41.238Z,70.03
2017-11-06T23:21:09.624Z,61.33
2017-11-06T23:23:37.048Z,68.37
2017-11-06T23:26:04.459Z,67.73
2017-11-06T23:28:32.642Z,61.73
2017-11-06T23:31:00.834Z,64.47
2017-11-06T23:33:28.251Z,60.73
2017-11-06T23:35:55.682Z,65.60
2017-11-06T23:38:23.102Z,63.28
2017-11-06T23:40:50.519Z,64.57
2017-11-06T23:43:17.943Z,74.63
2017-11-06T23:45:45.354Z,65.50
2017-11-06T23:48:13.540Z,67.70
2017-11-06T23:50:40.952Z,60.30
2017-11-06T23:53:08.364Z,62.30
2017-11-06T23:55:35.828Z,63.23
2017-11-06T23:58:03.232Z,64.50
